createdAt,value
2022-11-13T00:01:43.815Z,7.20
2022-11-13T00:04:30.439Z,7.20
2022-11-13T00:07:17.488Z,7.20
2022-11-13T00:10:05.072Z,7.10
2022-11-13T00:12:53.691Z,7.10
2022-11-13T00:15:40.680Z,7.10
2022-11-13T00:18:30.635Z,7.10
2022-11-13T00:21:20.385Z,7.10
2022-11-13T00:24:08.529Z,7.10
2022-11-13T00:26:55.382Z,7.00
2022-11-13T00:29:42.276Z,7.00
2022-11-13T00:32:29.536Z,7.10
2022-11-13T00:35:18.051Z,7.00
2022-11-13T00:38:04.760Z,7.00
2022-11-13T00:40:51.641Z,7.00
2022-11-13T00:43:38.423Z,7.00
2022-11-13T00:46:25.087Z,7.00
2022-11-13T00:49:13.121Z,7.00
2022-11-13T00:52:03.020Z,6.90
2022-11-13T00:54:49.767Z,7.00
2022-11-13T00:57:36.542Z,7.00
2022-11-13T01:00:23.732Z,6.90
2022-11-13T01:03:11.240Z,6.90
2022-11-13T01:05:58.094Z,6.80
2022-11-13T01:08:47.177Z,6.70
2022-11-13T01:11:34.209Z,6.60
2022-11-13T01:14:20.971Z,6.50
2022-11-13T01:17:07.731Z,6.50
2022-11-13T01:19:54.528Z,6.40
2022-11-13T01:22:41.401Z,6.30
2022-11-13T01:25:31.359Z,6.30
2022-11-13T01:28:18.209Z,6.30
2022-11-13T01:31:07.698Z,6.40
2022-11-13T01:33:54.590Z,6.30
2022-11-13T01:36:41.576Z,6.20
2022-11-13T01:39:28.426Z,6.20
2022-11-13T01:42:16.968Z,6.10
2022-11-13T01:45:04.141Z,6.10
2022-11-13T01:47:52.168Z,6.10
2022-11-13T01:50:39.534Z,6.10
2022-11-13T01:53:26.984Z,6.20
2022-11-13T01:56:15.401Z,6.20
2022-11-13T01:59:13.637Z,6.20
2022-11-13T02:02:00.748Z,6.20
2022-11-13T02:04:48.544Z,6.20
2022-11-13T02:07:35.842Z,6.10
2022-11-13T02:10:22.869Z,6.20
2022-11-13T02:13:10.008Z,6.20
2022-11-13T02:15:58.961Z,6.20
2022-11-13T02:18:47.029Z,6.30
2022-11-13T02:21:42.306Z,6.20
2022-11-13T02:24:37.709Z,6.30
2022-11-13T02:27:32.369Z,6.30
2022-11-13T02:30:26.851Z,6.30
2022-11-13T02:33:27.983Z,6.30
2022-11-13T02:36:16.616Z,6.40
2022-11-13T02:39:08.469Z,6.40
2022-11-13T02:41:56.741Z,6.40
2022-11-13T02:44:43.567Z,6.40
2022-11-13T02:47:31.210Z,6.40
2022-11-13T02:50:19.242Z,6.40
2022-11-13T02:53:07.399Z,6.40
2022-11-13T02:55:54.522Z,6.40
2022-11-13T02:58:43.035Z,6.40
2022-11-13T03:01:30.251Z,6.30
2022-11-13T03:04:17.292Z,6.30
2022-11-13T03:07:04.530Z,6.30
2022-11-13T03:09:51.143Z,6.30
2022-11-13T03:12:38.218Z,6.30
2022-11-13T03:15:26.588Z,6.40
2022-11-13T03:18:13.658Z,6.40
2022-11-13T03:21:07.676Z,6.40
2022-11-13T03:23:55.916Z,6.30
2022-11-13T03:26:42.631Z,6.40
2022-11-13T03:29:29.323Z,6.40
2022-11-13T03:32:17.693Z,6.40
2022-11-13T03:35:05.821Z,6.40
2022-11-13T03:37:53.044Z,6.40
2022-11-13T03:40:39.831Z,6.40
2022-11-13T03:43:26.636Z,6.40
2022-11-13T03:46:13.324Z,6.40
2022-11-13T03:49:01.747Z,6.40
2022-11-13T03:51:48.450Z,6.40
2022-11-13T03:54:35.528Z,6.50
2022-11-13T03:57:22.543Z,6.40
2022-11-13T04:00:11.509Z,6.50
2022-11-13T04:02:58.411Z,6.50
2022-11-13T04:05:48.820Z,6.40
2022-11-13T04:08:35.758Z,6.50
2022-11-13T04:11:22.747Z,6.50
2022-11-13T04:14:09.411Z,6.50
2022-11-13T04:16:56.143Z,6.50
2022-11-13T04:19:42.927Z,6.50
2022-11-13T04:22:31.272Z,6.50
2022-11-13T04:25:18.677Z,6.50
2022-11-13T04:28:05.872Z,6.50
2022-11-13T04:30:55.355Z,6.50
2022-11-13T04:33:42.519Z,6.50
2022-11-13T04:36:29.396Z,6.50
2022-11-13T04:39:17.454Z,6.40
2022-11-13T04:42:22.225Z,6.40
2022-11-13T04:45:10.706Z,6.40
2022-11-13T04:47:57.932Z,6.40
2022-11-13T04:50:44.890Z,6.40
2022-11-13T04:53:32.062Z,6.40
2022-11-13T04:56:20.650Z,6.40
2022-11-13T04:59:07.588Z,6.40
2022-11-13T05:01:55.704Z,6.40
2022-11-13T05:04:42.655Z,6.30
2022-11-13T05:07:29.602Z,6.30
2022-11-13T05:10:18.360Z,6.30
2022-11-13T05:13:06.756Z,6.30
2022-11-13T05:16:02.160Z,6.30
2022-11-13T05:18:49.107Z,6.40
2022-11-13T05:21:36.112Z,6.40
2022-11-13T05:24:22.935Z,6.50
2022-11-13T05:27:14.291Z,6.40
2022-11-13T05:30:06.865Z,6.40
2022-11-13T05:32:54.269Z,6.30
2022-11-13T05:35:41.220Z,6.40
2022-11-13T05:38:30.011Z,6.40
2022-11-13T05:41:19.555Z,6.40
2022-11-13T05:44:06.683Z,6.30
2022-11-13T05:46:54.925Z,6.30
2022-11-13T05:49:42.006Z,6.30
2022-11-13T05:52:28.739Z,6.30
2022-11-13T05:55:15.814Z,6.30
2022-11-13T05:58:02.840Z,6.30
2022-11-13T06:00:49.894Z,6.30
2022-11-13T06:03:39.491Z,6.30
2022-11-13T06:06:28.746Z,6.30
2022-11-13T06:09:18.248Z,6.30
2022-11-13T06:12:06.446Z,6.30
2022-11-13T06:14:53.106Z,6.30
2022-11-13T06:17:39.903Z,6.30
2022-11-13T06:20:28.517Z,6.30
2022-11-13T06:23:15.497Z,6.40
2022-11-13T06:26:03.608Z,6.40
2022-11-13T06:28:51.744Z,6.30
2022-11-13T06:31:39.318Z,6.30
2022-11-13T06:34:25.988Z,6.20
2022-11-13T06:37:14.228Z,6.20
2022-11-13T06:40:01.011Z,6.30
2022-11-13T06:42:47.819Z,6.20
2022-11-13T06:45:34.449Z,6.20
2022-11-13T06:48:21.454Z,6.20
2022-11-13T06:51:15.720Z,6.30
2022-11-13T06:54:03.961Z,6.20
2022-11-13T06:56:51.041Z,6.20
2022-11-13T06:59:37.838Z,6.30
2022-11-13T07:02:24.763Z,6.20
2022-11-13T07:05:11.535Z,6.30
2022-11-13T07:07:58.260Z,6.30
2022-11-13T07:10:55.108Z,6.30
2022-11-13T07:13:42.512Z,6.40
2022-11-13T07:16:44.174Z,6.40
2022-11-13T07:19:36.453Z,6.50
2022-11-13T07:22:23.270Z,6.40
2022-11-13T07:25:10.753Z,6.50
2022-11-13T07:28:01.030Z,6.60
2022-11-13T07:30:47.850Z,6.60
2022-11-13T07:33:34.917Z,6.50
2022-11-13T07:36:21.952Z,6.50
2022-11-13T07:39:08.660Z,6.50
2022-11-13T07:41:55.523Z,6.50
2022-11-13T07:44:58.883Z,6.60
2022-11-13T07:47:45.556Z,6.60
2022-11-13T07:50:34.987Z,6.70
2022-11-13T07:53:23.099Z,6.80
2022-11-13T07:56:10.231Z,7.00
2022-11-13T07:58:57.386Z,7.00
2022-11-13T08:01:45.521Z,6.90
2022-11-13T08:04:32.499Z,6.90
2022-11-13T08:07:20.396Z,7.00
2022-11-13T08:10:08.792Z,7.10
2022-11-13T08:13:02.446Z,7.20
2022-11-13T08:15:49.869Z,7.20
2022-11-13T08:18:38.496Z,7.20
2022-11-13T08:21:25.771Z,7.30
2022-11-13T08:24:12.838Z,7.30
2022-11-13T08:27:00.047Z,7.30
2022-11-13T08:29:47.324Z,7.40
2022-11-13T08:32:34.305Z,7.50
2022-11-13T08:35:29.051Z,7.50
2022-11-13T08:38:16.490Z,7.50
2022-11-13T08:41:09.300Z,7.60
2022-11-13T08:43:56.786Z,7.60
2022-11-13T08:46:43.408Z,7.50
2022-11-13T08:49:30.437Z,7.40
2022-11-13T08:52:18.576Z,7.40
2022-11-13T08:55:06.901Z,7.30
2022-11-13T08:57:54.326Z,7.40
2022-11-13T09:00:41.961Z,7.50
2022-11-13T09:03:28.857Z,7.50
2022-11-13T09:06:16.398Z,7.40
2022-11-13T09:09:06.698Z,7.50
2022-11-13T09:11:53.773Z,7.60
2022-11-13T09:14:40.655Z,7.70
2022-11-13T09:17:27.802Z,7.70
2022-11-13T09:20:16.346Z,7.70
2022-11-13T09:23:09.230Z,7.70
2022-11-13T09:25:57.725Z,7.70
2022-11-13T09:28:45.006Z,7.80
2022-11-13T09:31:32.443Z,7.70
2022-11-13T09:34:19.442Z,7.80
2022-11-13T09:37:06.682Z,7.90
2022-11-13T09:39:53.986Z,8.00
2022-11-13T09:42:43.137Z,8.20
2022-11-13T09:45:34.041Z,8.40
2022-11-13T09:48:36.290Z,8.50
2022-11-13T09:51:30.494Z,8.70
2022-11-13T09:54:17.790Z,8.70
2022-11-13T09:57:26.342Z,8.80
2022-11-13T10:00:20.095Z,8.80
2022-11-13T10:07:16.947Z,8.90
2022-11-13T10:10:36.847Z,8.70
2022-11-13T10:13:29.650Z,8.60
2022-11-13T10:16:32.921Z,8.50
2022-11-13T10:19:29.493Z,8.50
2022-11-13T10:22:32.974Z,8.40
2022-11-13T10:25:24.566Z,8.50
2022-11-13T10:28:43.696Z,8.40
2022-11-13T10:31:25.065Z,8.40
2022-11-13T10:34:13.747Z,8.40
2022-11-13T10:37:22.709Z,8.40
2022-11-13T10:40:10.207Z,8.40
2022-11-13T10:43:08.247Z,8.40
2022-11-13T10:45:58.119Z,8.40
2022-11-13T10:48:46.483Z,8.20
2022-11-13T10:51:35.937Z,8.20
2022-11-13T10:54:27.015Z,8.20
2022-11-13T10:57:30.864Z,8.10
2022-11-13T11:00:26.512Z,8.10
2022-11-13T11:03:20.017Z,8.10
2022-11-13T11:06:09.506Z,8.20
2022-11-13T11:09:09.260Z,8.20
2022-11-13T11:12:22.039Z,8.20
2022-11-13T11:15:27.114Z,8.20
2022-11-13T11:18:27.634Z,8.30
2022-11-13T11:21:22.487Z,8.30
2022-11-13T11:24:17.969Z,8.30
2022-11-13T11:27:13.944Z,8.30
2022-11-13T11:30:07.451Z,8.30
2022-11-13T11:33:05.837Z,8.20
2022-11-13T11:36:03.282Z,8.30
2022-11-13T11:38:56.855Z,8.30
2022-11-13T11:41:51.919Z,8.30
2022-11-13T11:44:57.513Z,8.20
2022-11-13T11:47:45.398Z,8.20
2022-11-13T11:51:04.727Z,8.20
2022-11-13T11:54:06.867Z,8.30
2022-11-13T11:56:58.928Z,8.30
2022-11-13T12:00:04.572Z,8.40
2022-11-13T12:03:32.133Z,8.40
2022-11-13T12:06:37.035Z,8.50
2022-11-13T12:09:32.181Z,8.60
2022-11-13T12:12:35.070Z,8.60
2022-11-13T12:15:30.874Z,8.70
2022-11-13T12:18:36.219Z,8.70
2022-11-13T12:21:25.460Z,8.70
2022-11-13T12:24:56.517Z,8.70
2022-11-13T12:27:50.525Z,8.70
2022-11-13T12:30:54.230Z,8.70
2022-11-13T12:33:56.916Z,8.70
2022-11-13T12:36:47.692Z,8.70
2022-11-13T12:39:50.615Z,8.60
2022-11-13T12:42:47.064Z,8.60
2022-11-13T12:45:52.131Z,8.70
2022-11-13T12:48:42.035Z,8.70
2022-11-13T12:51:40.373Z,8.80
2022-11-13T12:54:32.901Z,8.80
2022-11-13T12:57:30.586Z,8.80
2022-11-13T13:00:29.751Z,8.80
2022-11-13T13:03:44.781Z,8.80
2022-11-13T13:06:52.944Z,8.80
2022-11-13T13:10:02.708Z,8.90
2022-11-13T13:13:02.726Z,8.80
2022-11-13T13:15:57.609Z,8.80
2022-11-13T13:18:44.265Z,8.90
2022-11-13T13:21:42.968Z,8.90
2022-11-13T13:24:33.653Z,8.90
2022-11-13T13:27:26.582Z,8.90
2022-11-13T13:30:21.068Z,8.90
2022-11-13T13:33:23.236Z,8.90
2022-11-13T13:36:26.712Z,8.90
2022-11-13T13:39:28.869Z,8.90
2022-11-13T13:42:40.905Z,8.90
2022-11-13T13:45:44.209Z,9.00
2022-11-13T13:48:32.925Z,9.00
2022-11-13T13:51:30.226Z,9.00
2022-11-13T13:54:23.257Z,8.90
2022-11-13T13:57:16.873Z,9.00
2022-11-13T14:00:04.625Z,9.00
2022-11-13T14:02:54.765Z,9.00
2022-11-13T14:05:41.608Z,9.00
2022-11-13T14:08:29.366Z,9.00
2022-11-13T14:11:21.136Z,9.00
2022-11-13T14:14:10.323Z,9.00
2022-11-13T14:17:00.439Z,8.90
2022-11-13T14:19:53.013Z,8.90
2022-11-13T14:22:41.816Z,9.00
2022-11-13T14:25:30.749Z,9.00
2022-11-13T14:28:21.132Z,9.00
2022-11-13T14:31:13.216Z,9.00
2022-11-13T14:34:09.392Z,9.00
2022-11-13T14:36:57.969Z,9.10
2022-11-13T14:39:49.085Z,9.10
2022-11-13T14:42:39.678Z,9.10
2022-11-13T14:45:29.389Z,9.10
2022-11-13T14:48:23.019Z,9.10
2022-11-13T14:51:25.671Z,9.10
2022-11-13T14:57:10.837Z,9.10
2022-11-13T14:59:57.867Z,9.10
2022-11-13T15:02:45.040Z,9.10
2022-11-13T15:05:32.912Z,9.10
2022-11-13T15:08:20.104Z,9.10
2022-11-13T15:11:07.970Z,9.10
2022-11-13T15:14:01.424Z,9.10
2022-11-13T15:16:54.463Z,9.10
2022-11-13T15:19:41.731Z,9.00
2022-11-13T15:22:29.029Z,9.00
2022-11-13T15:25:18.189Z,9.10
2022-11-13T15:28:05.523Z,9.00
2022-11-13T15:30:54.131Z,9.00
2022-11-13T15:33:41.354Z,9.10
2022-11-13T15:36:28.297Z,9.00
2022-11-13T15:39:22.985Z,9.00
2022-11-13T15:42:16.486Z,9.00
2022-11-13T15:45:05.906Z,9.00
2022-11-13T15:47:54.267Z,9.10
2022-11-13T15:50:41.576Z,9.10
2022-11-13T15:53:29.625Z,9.10
2022-11-13T15:56:17.241Z,9.10
2022-11-13T15:59:04.414Z,9.10
2022-11-13T16:01:56.808Z,9.10
2022-11-13T16:04:55.922Z,9.00
2022-11-13T16:07:44.049Z,9.10
2022-11-13T16:10:30.781Z,9.10
2022-11-13T16:13:18.803Z,9.10
2022-11-13T16:16:06.509Z,9.10
2022-11-13T16:18:59.816Z,9.20
2022-11-13T16:21:49.376Z,9.20
2022-11-13T16:24:36.319Z,9.20
2022-11-13T16:27:28.421Z,9.20
2022-11-13T16:30:19.739Z,9.30
2022-11-13T16:33:10.020Z,9.30
2022-11-13T16:35:57.309Z,9.30
2022-11-13T16:38:46.055Z,9.30
2022-11-13T16:41:34.150Z,9.30
2022-11-13T16:44:21.065Z,9.30
2022-11-13T16:47:08.861Z,9.30
2022-11-13T16:49:56.243Z,9.40
2022-11-13T16:52:43.161Z,9.40
2022-11-13T16:55:31.624Z,9.40
2022-11-13T16:58:18.572Z,9.40
2022-11-13T17:01:06.781Z,9.50
2022-11-13T17:03:53.935Z,9.50
2022-11-13T17:06:40.810Z,9.40
2022-11-13T17:09:27.651Z,9.50
2022-11-13T17:12:19.067Z,9.50
2022-11-13T17:15:11.214Z,9.50
2022-11-13T17:18:01.078Z,9.50
2022-11-13T17:20:51.974Z,9.50
2022-11-13T17:23:39.127Z,9.50
2022-11-13T17:26:26.981Z,9.50
2022-11-13T17:29:15.430Z,9.50
2022-11-13T17:32:02.593Z,9.50
2022-11-13T17:34:49.364Z,9.50
2022-11-13T17:37:36.224Z,9.50
2022-11-13T17:40:23.028Z,9.60
2022-11-13T17:43:09.872Z,9.70
2022-11-13T17:46:00.513Z,9.80
2022-11-13T17:48:48.058Z,9.80
2022-11-13T17:51:35.112Z,9.80
2022-11-13T17:54:21.852Z,9.90
2022-11-13T17:57:10.182Z,9.80
2022-11-13T17:59:57.262Z,9.90
2022-11-13T18:02:46.429Z,9.90
2022-11-13T18:05:36.753Z,9.90
2022-11-13T18:08:26.292Z,9.90
2022-11-13T18:11:17.220Z,10.00
2022-11-13T18:14:04.194Z,10.00
2022-11-13T18:16:50.969Z,9.90
2022-11-13T18:19:39.157Z,10.00
2022-11-13T18:22:26.592Z,10.00
2022-11-13T18:25:14.004Z,9.90
2022-11-13T18:28:01.077Z,9.80
2022-11-13T18:30:51.943Z,9.90
2022-11-13T18:33:42.702Z,9.80
2022-11-13T18:36:32.063Z,9.80
2022-11-13T18:39:18.972Z,9.90
2022-11-13T18:42:06.143Z,9.90
2022-11-13T18:44:52.851Z,9.90
2022-11-13T18:47:39.832Z,9.90
2022-11-13T18:50:27.716Z,9.90
2022-11-13T18:53:16.060Z,9.90
2022-11-13T18:56:05.334Z,9.90
2022-11-13T18:58:55.080Z,9.90
2022-11-13T19:01:43.203Z,9.90
2022-11-13T19:04:30.075Z,9.90
2022-11-13T19:07:17.114Z,9.80
2022-11-13T19:10:06.215Z,9.80
2022-11-13T19:12:53.349Z,9.90
2022-11-13T19:15:40.550Z,9.90
2022-11-13T19:18:27.687Z,9.90
2022-11-13T19:21:17.834Z,9.80
2022-11-13T19:24:05.854Z,9.80
2022-11-13T19:26:54.156Z,9.90
2022-11-13T19:29:41.326Z,9.90
2022-11-13T19:32:28.540Z,9.90
2022-11-13T19:35:15.748Z,9.80
2022-11-13T19:38:03.025Z,9.80
2022-11-13T19:40:52.808Z,9.80
2022-11-13T19:43:42.426Z,9.90
2022-11-13T19:46:31.973Z,9.90
2022-11-13T19:49:19.083Z,9.90
2022-11-13T19:52:06.154Z,9.90
2022-11-13T19:54:52.909Z,9.90
2022-11-13T19:57:44.911Z,9.90
2022-11-13T20:00:34.692Z,9.90
2022-11-13T20:03:22.604Z,9.90
2022-11-13T20:06:11.583Z,9.90
2022-11-13T20:09:00.410Z,9.90
2022-11-13T20:11:47.523Z,9.90
2022-11-13T20:14:38.226Z,9.90
2022-11-13T20:17:27.054Z,9.90
2022-11-13T20:20:14.358Z,9.90
2022-11-13T20:23:01.690Z,9.80
2022-11-13T20:25:57.048Z,9.90
2022-11-13T20:28:44.346Z,9.80
2022-11-13T20:31:31.536Z,9.80
2022-11-13T20:34:19.919Z,9.90
2022-11-13T20:37:06.695Z,9.90
2022-11-13T20:39:53.460Z,9.90
2022-11-13T20:42:40.218Z,9.90
2022-11-13T20:45:27.204Z,10.00
2022-11-13T20:48:14.189Z,9.90
2022-11-13T20:51:08.991Z,10.00
2022-11-13T20:53:57.230Z,10.00
2022-11-13T20:56:44.057Z,9.90
2022-11-13T20:59:30.932Z,9.90
2022-11-13T21:02:18.168Z,9.90
2022-11-13T21:05:05.334Z,9.90
2022-11-13T21:07:53.779Z,9.90
2022-11-13T21:10:40.499Z,9.90
2022-11-13T21:13:27.646Z,10.00
2022-11-13T21:16:14.508Z,10.00
2022-11-13T21:19:01.492Z,10.00
2022-11-13T21:21:48.623Z,10.00
2022-11-13T21:24:37.882Z,9.90
2022-11-13T21:27:24.709Z,9.90
2022-11-13T21:30:12.766Z,9.90
2022-11-13T21:33:00.644Z,9.80
2022-11-13T21:35:47.187Z,9.90
2022-11-13T21:38:34.535Z,9.80
2022-11-13T21:41:25.515Z,9.80
2022-11-13T21:44:12.699Z,9.80
2022-11-13T21:46:59.740Z,9.90
2022-11-13T21:49:46.813Z,9.80
2022-11-13T21:52:34.146Z,9.80
2022-11-13T21:55:21.132Z,9.80
2022-11-13T21:58:09.256Z,9.80
2022-11-13T22:00:56.143Z,9.80
2022-11-13T22:03:43.366Z,9.90
2022-11-13T22:06:33.170Z,9.80
2022-11-13T22:09:22.360Z,9.80
2022-11-13T22:12:10.967Z,9.80
2022-11-13T22:14:59.426Z,9.80
2022-11-13T22:17:46.639Z,9.80
2022-11-13T22:20:33.427Z,9.90
2022-11-13T22:23:20.266Z,9.80
2022-11-13T22:26:09.514Z,9.80
2022-11-13T22:28:57.709Z,9.70
2022-11-13T22:31:46.599Z,9.70
2022-11-13T22:34:33.548Z,9.70
2022-11-13T22:37:20.218Z,9.70
2022-11-13T22:40:08.646Z,9.60
2022-11-13T22:42:56.401Z,9.60
2022-11-13T22:45:43.122Z,9.50
2022-11-13T22:48:32.090Z,9.60
2022-11-13T22:51:21.753Z,9.50
2022-11-13T22:54:11.785Z,9.60
2022-11-13T22:57:03.860Z,9.50
2022-11-13T22:59:50.578Z,9.50
2022-11-13T23:02:37.565Z,9.50
2022-11-13T23:05:25.935Z,9.40
2022-11-13T23:08:12.731Z,9.30
2022-11-13T23:11:01.001Z,9.40
2022-11-13T23:13:51.269Z,9.30
2022-11-13T23:16:38.132Z,9.30
2022-11-13T23:19:24.928Z,9.30
2022-11-13T23:22:13.133Z,9.30
2022-11-13T23:25:00.244Z,9.30
2022-11-13T23:27:47.677Z,9.30
2022-11-13T23:30:34.830Z,9.10
2022-11-13T23:33:21.756Z,9.10
2022-11-13T23:36:11.112Z,9.10
2022-11-13T23:38:59.368Z,9.10
2022-11-13T23:41:46.345Z,9.10
2022-11-13T23:44:33.364Z,9.10
2022-11-13T23:47:20.177Z,9.20
2022-11-13T23:50:08.672Z,9.10
2022-11-13T23:52:55.977Z,9.10
2022-11-13T23:55:45.039Z,9.00
2022-11-13T23:58:32.625Z,9.00
